Time;durP1;ratioP1;P1;durP2;ratioP2;P2;SDS_P1;SDS_P2;PMS_P1;PMS_P2;Temp;Humidity;BMP_temperature;BMP_pressure;BME280_temperature;BME280_humidity;BME280_pressure;Samples;Min_cycle;Max_cycle;Signal;HPM_P1;HPM_P2
2021/03/26 00:02:32;;;;;;;8.93;6.37;;;3.90;99.90;;;4.52;37.35;94698.84;5021259;28;20192;-80
2021/03/26 00:05:02;;;;;;;8.93;6.57;;;3.80;99.90;;;4.49;38.21;94692.19;5007571;28;20201;-80
2021/03/26 00:07:43;;;;;;;9.30;6.33;;;3.80;99.90;;;4.45;38.29;94691.00;5008669;28;20230;-80
2021/03/26 00:10:46;;;;;;;10.40;6.90;;;3.80;99.90;;;4.41;37.89;94694.22;5023323;28;20605;-80
2021/03/26 00:13:24;;;;;;;9.17;6.63;;;3.70;99.90;;;4.39;38.05;94691.00;4923857;29;20272;-81
2021/03/26 00:16:27;;;;;;;8.53;6.23;;;3.70;99.90;;;4.32;38.03;94688.41;4920900;29;20297;-82
2021/03/26 00:18:56;;;;;;;8.37;5.93;;;3.70;99.90;;;4.34;38.23;94680.31;4854528;29;20250;-81
2021/03/26 00:21:24;;;;;;;9.43;6.40;;;3.60;99.90;;;4.33;38.45;94682.13;4883658;29;20235;-82
2021/03/26 00:24:11;;;;;;;8.73;6.07;;;3.70;99.90;;;4.28;38.80;94678.53;4884202;29;20779;-81
2021/03/26 00:27:08;;;;;;;8.87;6.67;;;3.60;99.90;;;4.25;38.12;94682.38;4886744;29;20214;-82
2021/03/26 00:29:46;;;;;;;8.57;6.20;;;3.60;99.90;;;4.12;38.22;94677.16;4867929;29;20199;-81
2021/03/26 00:32:12;;;;;;;7.93;6.00;;;3.50;99.90;;;4.15;38.50;94679.38;4874227;29;20227;-81
2021/03/26 00:34:40;;;;;;;10.83;6.83;;;3.50;99.90;;;4.10;39.23;94672.09;4864594;29;20209;-82
2021/03/26 00:37:07;;;;;;;9.17;6.50;;;3.60;99.90;;;4.04;39.21;94665.06;4880168;29;20208;-81
2021/03/26 00:39:43;;;;;;;11.30;6.70;;;3.40;99.90;;;4.05;39.34;94679.00;4870899;29;20199;-82
2021/03/26 00:42:48;;;;;;;10.67;6.47;;;3.40;99.90;;;4.07;38.79;94688.25;4848843;29;20184;-82
2021/03/26 00:45:24;;;;;;;10.10;6.50;;;3.40;99.90;;;4.01;38.84;94683.03;4879822;29;20228;-81
2021/03/26 00:47:52;;;;;;;8.97;6.30;;;3.40;99.90;;;3.94;39.55;94676.97;4912254;29;20271;-81
2021/03/26 00:50:29;;;;;;;8.17;6.40;;;3.30;99.90;;;3.89;38.98;94676.81;4920996;29;20218;-81
2021/03/26 00:53:12;;;;;;;12.77;6.47;;;3.20;99.90;;;3.91;39.56;94682.63;4918440;29;20201;-82
2021/03/26 00:55:47;;;;;;;9.40;6.20;;;3.20;99.90;;;3.88;39.05;94676.00;4944646;28;20197;-81
2021/03/26 00:58:13;;;;;;;8.43;7.17;;;3.20;99.90;;;3.83;39.14;94683.66;4945157;28;20232;-81
2021/03/26 01:00:53;;;;;;;9.47;6.50;;;3.20;99.90;;;3.86;39.67;94685.09;4960806;28;20274;-81
2021/03/26 01:03:35;;;;;;;8.77;6.87;;;3.20;99.90;;;3.91;39.95;94680.00;4945922;28;20294;-81
2021/03/26 01:06:07;;;;;;;9.57;6.83;;;3.20;99.90;;;3.80;39.91;94683.25;4976004;28;20666;-80
2021/03/26 01:08:53;;;;;;;10.53;6.67;;;3.10;99.90;;;3.63;40.31;94680.25;5033092;28;20611;-80
2021/03/26 01:11:33;;;;;;;10.27;7.13;;;3.00;99.90;;;3.75;39.53;94691.75;5039889;28;20197;-80
2021/03/26 01:14:09;;;;;;;10.30;7.20;;;3.00;99.90;;;3.75;39.97;94685.69;5072937;28;20176;-79
2021/03/26 01:16:36;;;;;;;8.90;6.40;;;3.00;99.90;;;3.78;40.18;94678.22;5059738;28;20193;-80
2021/03/26 01:19:19;;;;;;;10.70;6.57;;;3.00;99.90;;;3.79;40.57;94679.84;5061799;28;20254;-80
2021/03/26 01:21:59;;;;;;;9.47;6.50;;;3.10;99.90;;;3.70;40.52;94677.63;5050329;28;20177;-80
2021/03/26 01:24:38;;;;;;;8.67;6.63;;;3.00;99.90;;;3.62;40.50;94678.66;5044524;28;20166;-80
2021/03/26 01:27:14;;;;;;;11.23;6.80;;;3.00;99.90;;;3.54;40.14;94678.84;5044735;28;20193;-80
2021/03/26 01:29:42;;;;;;;8.13;6.40;;;2.90;99.90;;;3.52;40.76;94675.63;5043636;28;20173;-80
2021/03/26 01:32:37;;;;;;;10.57;6.87;;;2.90;99.90;;;3.49;40.12;94678.66;5037609;28;20210;-80
2021/03/26 01:35:06;;;;;;;10.97;7.40;;;2.80;99.90;;;3.36;41.21;94678.63;5056039;28;20281;-80
2021/03/26 01:37:34;;;;;;;11.57;6.70;;;2.70;99.90;;;3.34;40.80;94680.66;5076856;28;20522;-80
2021/03/26 01:40:00;;;;;;;9.40;6.70;;;2.80;99.90;;;3.40;40.98;94669.34;5044641;28;20180;-80
2021/03/26 01:42:36;;;;;;;10.33;7.00;;;2.70;99.90;;;3.40;41.17;94666.75;5033304;28;20548;-80
2021/03/26 01:45:20;;;;;;;14.73;7.20;;;2.80;99.90;;;3.17;40.79;94655.84;5078030;28;20193;-80
2021/03/26 01:47:52;;;;;;;9.83;7.07;;;2.60;99.90;;;3.31;40.51;94666.16;5077331;28;20181;-80
2021/03/26 01:50:25;;;;;;;9.97;7.17;;;2.70;99.90;;;3.24;40.97;94664.53;5077010;28;20170;-80
2021/03/26 01:52:55;;;;;;;9.97;7.17;;;2.60;99.90;;;3.14;40.87;94662.31;5061071;28;20314;-80
2021/03/26 01:56:05;;;;;;;28.20;14.43;;;2.60;99.90;;;3.10;41.20;94677.59;5012121;28;20190;-80
2021/03/26 01:58:34;;;;;;;14.00;9.10;;;2.50;99.90;;;3.09;40.94;94657.66;5026037;28;20539;-80
2021/03/26 02:01:28;;;;;;;10.70;7.37;;;2.50;99.90;;;3.05;40.90;94655.66;5079295;28;20639;-80
2021/03/26 02:04:04;;;;;;;10.00;7.37;;;2.40;99.90;;;3.08;41.56;94653.44;5028238;28;20260;-80
2021/03/26 02:06:46;;;;;;;9.57;6.80;;;2.50;99.90;;;3.10;41.19;94656.66;5039634;28;20182;-80
2021/03/26 02:09:17;;;;;;;10.20;7.17;;;2.40;99.90;;;3.03;41.93;94655.03;5027059;28;20162;-80
2021/03/26 02:11:56;;;;;;;9.93;7.50;;;2.40;99.90;;;2.97;41.98;94667.13;5063471;28;21914;-80
2021/03/26 02:14:33;;;;;;;10.97;7.10;;;2.30;99.90;;;3.04;41.23;94665.31;5044183;28;20161;-80
2021/03/26 02:17:03;;;;;;;10.17;7.70;;;2.30;99.90;;;3.11;41.67;94662.69;5059974;28;20216;-80
2021/03/26 02:20:21;;;;;;;9.83;7.47;;;2.30;99.90;;;3.07;41.67;94664.09;5044058;28;20183;-81
2021/03/26 02:23:37;;;;;;;13.67;7.30;;;2.30;99.90;;;3.10;42.37;94668.94;4980892;28;20188;-81
2021/03/26 02:26:34;;;;;;;9.33;6.50;;;2.30;99.90;;;3.06;42.01;94654.63;4969004;28;20194;-80
2021/03/26 02:29:22;;;;;;;9.77;7.60;;;2.30;99.90;;;3.09;42.13;94662.88;4967860;28;20189;-80
2021/03/26 02:32:04;;;;;;;10.67;7.03;;;2.40;99.90;;;3.04;41.63;94665.31;4972743;28;20177;-81
2021/03/26 02:34:31;;;;;;;13.20;7.07;;;2.40;99.90;;;3.01;41.93;94660.47;4980821;28;20314;-80
2021/03/26 02:37:02;;;;;;;13.00;7.97;;;2.40;99.90;;;2.95;42.75;94657.84;4978193;28;20257;-81
2021/03/26 02:39:50;;;;;;;11.73;7.40;;;2.30;99.90;;;2.93;42.56;94655.41;4962338;28;20222;-81
2021/03/26 02:42:30;;;;;;;10.00;7.37;;;2.30;99.90;;;2.98;42.61;94662.69;4993156;28;20660;-81
2021/03/26 02:45:28;;;;;;;9.83;7.27;;;2.30;99.90;;;2.79;42.70;94653.78;4980696;28;20247;-81
2021/03/26 02:48:08;;;;;;;9.77;7.33;;;2.10;99.90;;;2.79;42.27;94663.44;4979492;28;20176;-81
2021/03/26 02:51:29;;;;;;;11.43;7.40;;;2.20;99.90;;;2.85;43.23;94671.31;4981027;28;20165;-81
2021/03/26 02:54:48;;;;;;;9.40;6.83;;;2.10;99.90;;;2.93;43.19;94658.03;4960900;29;20200;-81
2021/03/26 02:57:59;;;;;;;9.50;6.93;;;2.20;99.90;;;2.88;43.44;94663.06;4912125;29;20626;-80
2021/03/26 03:00:56;;;;;;;11.03;7.90;;;2.20;99.90;;;2.88;42.65;94659.66;4944812;29;20176;-80
2021/03/26 03:03:55;;;;;;;12.70;7.17;;;2.10;99.90;;;2.82;43.73;94648.13;4944610;29;20218;-81
2021/03/26 03:06:51;;;;;;;12.63;8.03;;;2.10;99.90;;;2.87;43.06;94648.38;4898578;29;20195;-79
2021/03/26 03:09:40;;;;;;;10.80;7.70;;;2.10;99.90;;;2.86;43.15;94646.75;4903258;29;20204;-80
2021/03/26 03:12:33;;;;;;;11.90;7.63;;;2.20;99.90;;;2.87;43.58;94648.38;4900353;29;20195;-81
2021/03/26 03:15:26;;;;;;;12.43;7.57;;;2.10;99.90;;;2.87;43.99;94643.13;4884711;29;20191;-80
2021/03/26 03:18:34;;;;;;;12.97;7.90;;;2.10;99.90;;;2.88;43.31;94649.19;4883458;29;20215;-80
2021/03/26 03:21:18;;;;;;;14.83;7.80;;;2.10;99.90;;;2.71;43.23;94640.09;4869154;29;20229;-80
2021/03/26 03:24:06;;;;;;;11.00;7.60;;;2.10;99.90;;;2.60;43.69;94631.00;4884254;29;20386;-81
2021/03/26 03:27:32;;;;;;;13.80;7.83;;;2.00;99.90;;;2.57;43.28;94631.38;4884389;29;20175;-80
2021/03/26 03:30:50;;;;;;;9.97;7.83;;;2.00;99.90;;;2.62;44.05;94634.22;4865802;29;20264;-81
2021/03/26 03:33:46;;;;;;;11.90;7.80;;;1.90;99.90;;;2.55;43.51;94626.34;4851067;29;20211;-80
2021/03/26 03:36:17;;;;;;;11.10;7.40;;;2.00;99.90;;;2.55;43.49;94623.72;4864936;29;20785;-80
2021/03/26 03:39:48;;;;;;;11.60;7.87;;;1.90;99.90;;;2.49;44.01;94616.66;4848578;29;20237;-81
2021/03/26 03:42:28;;;;;;;9.43;7.37;;;1.80;99.90;;;2.57;43.67;94610.47;4821556;29;20205;-80
2021/03/26 03:45:22;;;;;;;12.40;8.00;;;1.90;99.90;;;2.47;44.40;94605.63;4834135;29;20221;-80
2021/03/26 03:48:00;;;;;;;13.77;8.80;;;1.80;99.90;;;2.54;44.49;94603.00;4845844;29;20197;-81
2021/03/26 03:50:38;;;;;;;16.33;8.80;;;1.80;99.90;;;2.56;44.02;94601.00;4846754;29;20201;-80
2021/03/26 03:53:52;;;;;;;15.00;8.73;;;1.80;99.90;;;2.52;44.42;94591.91;4856048;29;20196;-80
2021/03/26 03:56:44;;;;;;;9.73;7.47;;;1.80;99.90;;;2.49;44.08;94590.50;4865237;29;20690;-80
2021/03/26 03:59:39;;;;;;;11.70;7.37;;;1.80;99.90;;;2.47;44.53;94587.31;4850498;29;20189;-80
2021/03/26 04:02:21;;;;;;;10.87;8.10;;;1.80;99.90;;;2.40;44.49;94591.72;4864869;29;20671;-81
2021/03/26 04:05:15;;;;;;;11.67;8.43;;;1.70;99.90;;;2.36;44.57;94587.88;4948519;28;20601;-81
2021/03/26 04:08:13;;;;;;;13.90;8.70;;;1.70;99.90;;;2.30;45.10;94590.47;4979085;28;20203;-81
2021/03/26 04:10:52;;;;;;;15.07;8.33;;;1.60;99.90;;;2.31;44.72;94584.25;4975584;28;20193;-80
2021/03/26 04:13:30;;;;;;;11.73;8.27;;;1.60;99.90;;;2.25;44.57;94574.56;4973918;28;20188;-80
2021/03/26 04:16:07;;;;;;;11.87;7.87;;;1.60;99.90;;;2.29;44.70;94571.34;4962387;28;20313;-81
2021/03/26 04:18:43;;;;;;;10.90;7.70;;;1.60;99.90;;;2.22;44.99;94570.53;4975554;28;20189;-81
2021/03/26 04:21:17;;;;;;;10.90;7.60;;;1.60;99.90;;;2.29;45.32;94576.59;5045989;28;20181;-80
2021/03/26 04:23:55;;;;;;;12.13;8.10;;;1.60;99.90;;;2.18;45.15;94571.13;5047593;28;20182;-81
2021/03/26 04:26:58;;;;;;;12.97;9.30;;;1.50;99.90;;;2.19;45.78;94577.94;5037430;28;20576;-81
2021/03/26 04:30:25;;;;;;;14.67;9.17;;;1.40;99.90;;;2.20;45.91;94575.16;5022355;28;20171;-81
2021/03/26 04:33:10;;;;;;;13.77;9.30;;;1.50;99.90;;;1.96;45.78;94575.66;5053380;28;20182;-81
2021/03/26 04:35:37;;;;;;;14.27;9.90;;;1.30;99.90;;;1.97;45.33;94577.28;5055837;28;20937;-80
2021/03/26 04:38:19;;;;;;;14.73;10.07;;;1.30;99.90;;;1.96;46.10;94570.44;5023994;28;20183;-81
2021/03/26 04:41:15;;;;;;;14.07;10.00;;;1.30;99.90;;;2.04;46.12;94584.16;5027878;28;20517;-81
2021/03/26 04:43:55;;;;;;;14.67;9.67;;;1.40;99.90;;;1.99;45.78;94575.28;4977694;28;20211;-81
2021/03/26 04:46:46;;;;;;;15.00;9.37;;;1.30;99.90;;;1.99;46.04;94570.03;4961760;28;20218;-80
2021/03/26 04:49:36;;;;;;;14.60;9.97;;;1.30;99.90;;;2.03;46.32;94577.31;4979538;28;20208;-80
2021/03/26 04:52:32;;;;;;;12.63;9.20;;;1.30;99.90;;;1.97;46.44;94559.81;4976703;28;20238;-81
2021/03/26 04:55:27;;;;;;;12.67;8.27;;;1.30;99.90;;;1.99;45.79;94568.25;4956754;28;20647;-79
2021/03/26 04:58:29;;;;;;;17.30;10.60;;;1.20;99.90;;;2.04;46.35;94565.06;4958224;29;20658;-81
2021/03/26 05:01:01;;;;;;;16.53;10.67;;;1.30;99.90;;;2.01;46.44;94563.63;4958614;28;20283;-80
2021/03/26 05:04:05;;;;;;;15.07;10.80;;;1.30;99.90;;;1.94;46.65;94567.22;4942200;29;20203;-81
2021/03/26 05:07:03;;;;;;;13.80;9.60;;;1.20;99.90;;;1.86;46.19;94562.97;4887973;29;20632;-81
2021/03/26 05:09:45;;;;;;;14.07;10.47;;;1.20;99.90;;;1.84;46.65;94559.75;4888667;29;20252;-81
2021/03/26 05:12:24;;;;;;;18.40;11.07;;;1.10;99.90;;;1.99;46.53;94562.19;4906413;29;20246;-80
2021/03/26 05:15:22;;;;;;;18.70;11.00;;;1.20;99.90;;;2.03;46.69;94550.38;4903696;29;20197;-80
2021/03/26 05:18:21;;;;;;;15.37;10.13;;;1.30;99.90;;;1.92;47.23;94556.94;4920067;29;20279;-80
2021/03/26 05:21:05;;;;;;;15.40;10.20;;;1.20;99.90;;;1.80;47.01;94558.53;4923569;28;20225;-81
2021/03/26 05:23:40;;;;;;;15.07;9.80;;;1.10;99.90;;;1.81;46.96;94560.16;4939762;29;20180;-81
2021/03/26 05:26:09;;;;;;;14.00;9.87;;;1.10;99.90;;;1.86;46.62;94559.53;4961542;28;20180;-81
2021/03/26 05:28:44;;;;;;;19.50;10.33;;;1.20;99.90;;;1.90;46.52;94564.19;4971585;28;20267;-81
2021/03/26 05:31:35;;;;;;;16.43;10.33;;;1.20;99.90;;;1.84;47.37;94570.19;4949649;28;20178;-81
2021/03/26 05:34:16;;;;;;;16.47;9.70;;;1.20;99.90;;;1.86;46.50;94560.34;4946314;28;20231;-81
2021/03/26 05:36:56;;;;;;;18.47;10.17;;;1.20;99.90;;;1.99;46.90;94576.09;4936709;29;20303;-81
2021/03/26 05:39:31;;;;;;;14.47;10.17;;;1.20;99.90;;;2.01;46.96;94566.22;4943187;28;20279;-81
2021/03/26 05:42:38;;;;;;;15.63;10.20;;;1.30;99.90;;;2.09;46.90;94567.88;4943839;28;20186;-82
2021/03/26 05:45:35;;;;;;;15.17;9.77;;;1.40;99.90;;;2.15;47.83;94574.13;5022883;28;20194;-81
2021/03/26 05:48:36;;;;;;;16.33;10.27;;;1.40;99.90;;;2.27;47.60;94569.94;5016678;28;20266;-81
2021/03/26 05:51:29;;;;;;;16.87;9.60;;;1.60;99.90;;;2.44;47.88;94577.25;5029797;28;20186;-82
2021/03/26 05:54:42;;;;;;;16.73;9.60;;;1.70;99.90;;;2.46;47.43;94571.78;5049226;28;20193;-82
2021/03/26 05:57:29;;;;;;;13.27;9.07;;;1.80;99.90;;;2.57;48.28;94585.13;5049321;28;20228;-81
2021/03/26 06:00:26;;;;;;;13.73;8.13;;;1.80;99.90;;;2.71;47.30;94575.47;5043390;28;20256;-81
2021/03/26 06:03:42;;;;;;;14.80;8.77;;;2.00;99.90;;;2.79;48.16;94577.88;5057347;28;20195;-81
2021/03/26 06:06:39;;;;;;;15.60;9.17;;;2.00;99.90;;;2.94;47.48;94580.31;4984847;28;20201;-80
2021/03/26 06:10:01;;;;;;;13.33;8.63;;;2.20;99.90;;;3.13;48.64;94589.16;4987962;28;20187;-84
2021/03/26 06:13:43;;;;;;;12.20;8.73;;;2.30;99.90;;;3.33;48.61;94588.16;4976234;28;20236;-81
2021/03/26 06:16:30;;;;;;;12.77;8.13;;;2.60;99.90;;;3.43;47.91;94591.16;4913532;29;20221;-81
2021/03/26 06:19:40;;;;;;;12.20;8.73;;;2.70;99.90;;;3.61;48.73;94593.97;4914270;29;20259;-81
2021/03/26 06:22:59;;;;;;;13.70;9.23;;;2.80;99.90;;;3.72;48.73;94589.13;4920622;29;20207;-81
2021/03/26 06:25:44;;;;;;;22.20;10.90;;;3.00;99.90;;;3.85;48.09;94592.50;4918468;29;20187;-82
2021/03/26 06:28:29;;;;;;;16.93;9.23;;;3.10;99.90;;;4.05;48.47;94590.63;4909327;29;20195;-82
2021/03/26 06:31:30;;;;;;;13.97;9.27;;;3.30;99.90;;;4.29;49.11;94590.94;4900485;29;20211;-83
2021/03/26 06:34:35;;;;;;;16.07;9.73;;;3.50;99.90;;;4.46;49.09;94592.88;4899978;29;20201;-82
2021/03/26 06:37:41;;;;;;;15.63;10.40;;;3.70;99.90;;;4.78;49.20;94598.94;4910864;29;20273;-82
2021/03/26 06:41:22;;;;;;;15.43;9.67;;;4.00;99.90;;;5.54;49.09;94615.34;4907262;29;20319;-82
2021/03/26 06:44:37;;;;;;;12.77;8.63;;;4.50;99.90;;;8.44;49.53;94672.84;4912242;29;20241;-82
2021/03/26 06:47:25;;;;;;;11.83;7.37;;;7.00;99.90;;;11.42;49.68;94669.63;4902941;29;20193;-82
2021/03/26 06:50:27;;;;;;;14.00;7.63;;;10.20;99.90;;;14.63;49.89;94667.81;4948736;28;20674;-83
2021/03/26 06:53:26;;;;;;;8.57;7.40;;;13.70;99.90;;;17.01;49.69;94659.03;4981076;28;20274;-83
2021/03/26 06:56:35;;;;;;;10.27;7.37;;;16.50;99.90;;;19.21;49.51;94660.44;4979809;28;20196;-83
2021/03/26 07:00:02;;;;;;;10.93;7.57;;;18.90;96.70;;;21.22;49.32;94673.00;4996800;28;20189;-83
2021/03/26 07:03:06;;;;;;;10.83;6.87;;;21.10;89.00;;;22.75;49.12;94635.63;4865608;29;20236;-84
2021/03/26 07:06:01;;;;;;;7.10;6.23;;;23.30;75.30;;;23.13;48.86;94600.50;4880748;29;20211;-83
2021/03/26 07:09:08;;;;;;;7.20;6.00;;;24.30;68.70;;;23.20;48.31;94671.13;4873722;29;20234;-83
2021/03/26 07:12:45;;;;;;;8.17;7.13;;;24.60;65.90;;;24.10;47.67;94645.28;4881695;29;20209;-83
2021/03/26 07:15:28;;;;;;;7.97;6.70;;;25.50;63.10;;;24.30;47.84;94613.91;4871541;29;20202;-80
2021/03/26 07:18:19;;;;;;;7.60;6.17;;;25.70;60.90;;;24.85;47.02;94674.00;4883936;29;20194;-81
2021/03/26 07:21:11;;;;;;;7.10;6.37;;;26.50;60.50;;;25.55;46.92;94644.16;4897018;29;20189;-81
2021/03/26 07:24:14;;;;;;;8.30;7.00;;;27.40;58.40;;;24.54;46.39;94619.44;4911261;29;20537;-80
2021/03/26 07:27:19;;;;;;;7.43;5.97;;;27.70;56.90;;;25.81;46.58;94639.16;4901195;29;20199;-80
2021/03/26 07:30:30;;;;;;;7.97;6.90;;;28.00;55.50;;;27.09;46.01;94678.97;4903541;29;20193;-81
2021/03/26 07:33:21;;;;;;;7.30;5.67;;;28.90;54.40;;;26.62;45.61;94665.22;4902738;29;20224;-80
2021/03/26 07:35:57;;;;;;;7.50;6.73;;;28.80;53.60;;;27.73;44.82;94594.97;4898424;29;20687;-81
2021/03/26 07:38:58;;;;;;;6.83;5.63;;;29.90;52.20;;;27.41;44.93;94645.94;4948122;28;20264;-81
2021/03/26 07:41:43;;;;;;;5.93;5.23;;;29.70;51.10;;;27.59;44.62;94670.94;5044476;28;20206;-80
2021/03/26 07:45:23;;;;;;;6.43;5.30;;;29.90;50.90;;;28.23;44.47;94661.50;5046471;28;20187;-81
2021/03/26 07:48:44;;;;;;;7.37;5.50;;;30.60;50.20;;;28.70;43.50;94694.88;4997772;28;20193;-81
2021/03/26 07:51:33;;;;;;;6.93;5.50;;;31.50;48.00;;;29.22;43.55;94617.03;4919972;29;20196;-81
2021/03/26 07:54:45;;;;;;;7.97;5.80;;;32.50;46.60;;;30.75;42.76;94695.56;4918481;29;20204;-83
2021/03/26 07:57:46;;;;;;;5.97;5.37;;;33.30;46.00;;;30.98;42.73;94673.53;4917478;29;20278;-82
2021/03/26 08:00:51;;;;;;;7.57;5.87;;;33.90;44.90;;;30.79;42.01;94641.59;4914618;29;20181;-82
2021/03/26 08:03:31;;;;;;;6.00;5.20;;;34.40;44.20;;;31.26;41.47;94610.81;4899086;29;20216;-81
2021/03/26 08:06:55;;;;;;;6.73;5.30;;;35.10;42.80;;;31.67;41.11;94619.78;4918206;29;20228;-82
2021/03/26 08:10:28;;;;;;;6.63;5.18;;;35.50;42.20;;;31.87;40.71;94722.59;4918051;29;20200;-81
2021/03/26 08:13:42;;;;;;;7.50;5.10;;;35.30;42.10;;;31.91;40.37;94626.63;4917224;29;20203;-80
2021/03/26 08:16:38;;;;;;;6.43;5.22;;;35.40;42.00;;;31.80;40.01;94598.31;4885219;29;20230;-81
2021/03/26 08:19:52;;;;;;;6.18;5.57;;;35.80;41.70;;;33.30;39.19;94681.06;4913317;29;21031;-82
2021/03/26 08:23:21;;;;;;;6.18;5.40;;;36.80;40.80;;;33.26;38.40;94620.56;4907924;29;20199;-82
2021/03/26 08:27:01;;;;;;;6.30;5.63;;;37.40;40.10;;;33.13;38.23;94613.09;4914720;29;20684;-81
2021/03/26 08:30:01;;;;;;;6.57;5.78;;;36.90;40.20;;;31.75;37.99;94582.25;4878199;29;20185;-82
2021/03/26 08:33:05;;;;;;;6.68;5.90;;;35.90;41.60;;;33.09;37.80;94643.28;4914106;29;20641;-82
2021/03/26 08:36:21;;;;;;;6.68;6.03;;;36.40;40.30;;;32.95;36.88;94667.97;4880381;29;20193;-82
2021/03/26 08:39:15;;;;;;;6.97;6.28;;;36.40;40.90;;;33.22;36.69;94662.97;4898721;29;20688;-82
2021/03/26 08:41:53;;;;;;;7.90;6.22;;;37.00;40.70;;;34.35;35.83;94594.19;4908277;29;20721;-82
2021/03/26 08:44:22;;;;;;;6.63;6.03;;;38.30;39.40;;;34.58;36.53;94517.34;4897688;29;20250;-83
2021/03/26 08:46:57;;;;;;;6.93;6.07;;;38.90;38.90;;;33.86;35.54;94606.06;4917713;29;20220;-83
2021/03/26 08:49:51;;;;;;;7.38;5.95;;;38.40;38.90;;;34.53;34.92;94692.06;4914319;29;20264;-83
2021/03/26 08:52:38;;;;;;;7.50;6.13;;;38.60;39.20;;;35.47;35.22;94634.16;4882934;29;20680;-83
2021/03/26 08:55:17;;;;;;;8.82;7.50;;;39.70;38.40;;;35.57;34.94;94537.91;4899234;29;20224;-84
2021/03/26 08:58:17;;;;;;;6.45;5.90;;;40.20;38.40;;;36.06;34.38;94700.38;4957308;28;20240;-84
2021/03/26 09:01:09;;;;;;;6.28;5.78;;;40.70;37.60;;;36.36;33.91;94648.03;4997841;28;20552;-83
2021/03/26 09:04:12;;;;;;;6.75;6.03;;;41.20;37.30;;;36.39;33.43;94640.88;5028420;28;20268;-83
2021/03/26 09:07:09;;;;;;;6.90;6.10;;;41.10;37.00;;;36.33;33.03;94618.44;5062769;28;20210;-83
2021/03/26 09:10:05;;;;;;;6.72;6.10;;;41.30;36.50;;;36.71;32.66;94607.38;5046763;28;20264;-83
2021/03/26 09:13:18;;;;;;;6.40;5.80;;;41.60;36.60;;;35.18;32.65;94660.38;5041397;28;20207;-83
2021/03/26 09:16:37;;;;;;;7.18;5.85;;;40.40;37.20;;;35.66;31.84;94698.31;4966163;28;20647;-82
2021/03/26 09:19:15;;;;;;;7.78;6.28;;;40.40;37.50;;;35.26;31.76;94634.31;4885173;29;20185;-82
2021/03/26 09:22:34;;;;;;;8.45;5.93;;;39.90;37.80;;;36.45;31.59;94700.00;4899111;29;20319;-83
2021/03/26 09:25:41;;;;;;;7.68;5.82;;;40.50;37.40;;;36.42;31.03;94679.53;4879735;29;20197;-84
2021/03/26 09:28:40;;;;;;;7.53;5.88;;;40.70;37.00;;;38.13;30.72;94689.94;4873047;29;20170;-83
2021/03/26 09:31:42;;;;;;;6.18;5.57;;;42.40;36.00;;;36.93;30.70;94462.94;4866212;29;20203;-85
2021/03/26 09:34:26;;;;;;;6.60;6.00;;;42.70;36.20;;;35.78;30.49;94544.06;4869010;29;20217;-82
2021/03/26 09:37:26;;;;;;;7.50;6.30;;;40.60;37.30;;;36.01;29.98;94711.84;4863170;29;20602;-81
2021/03/26 09:40:01;;;;;;;6.75;6.05;;;39.90;38.30;;;36.81;29.63;94559.47;4795617;29;20201;-82
2021/03/26 09:42:48;;;;;;;8.65;6.18;;;40.90;37.20;;;35.08;29.42;94489.47;4788289;29;20250;-82
2021/03/26 09:45:28;;;;;;;8.35;6.57;;;39.80;37.80;;;32.67;29.39;94558.78;4784182;29;20832;-82
2021/03/26 09:48:44;;;;;;;7.15;6.45;;;37.50;39.60;;;34.69;29.27;94647.56;4807717;29;20205;-82
2021/03/26 09:51:45;;;;;;;8.80;6.57;;;38.30;40.10;;;32.96;29.33;94532.19;4816435;29;20712;-82
2021/03/26 09:54:43;;;;;;;7.82;6.07;;;36.70;40.60;;;34.66;28.52;94648.38;4901891;29;20205;-81
2021/03/26 09:57:47;;;;;;;7.65;6.40;;;37.70;40.00;;;36.26;28.58;94601.19;4898460;29;20189;-82
2021/03/26 10:00:36;;;;;;;7.43;6.18;;;39.40;38.90;;;37.10;28.09;94613.22;4899984;29;20186;-82
2021/03/26 10:03:48;;;;;;;7.00;6.07;;;39.70;38.30;;;35.30;28.40;94566.13;4958744;28;20199;-81
2021/03/26 10:06:45;;;;;;;7.78;6.53;;;38.10;39.60;;;35.09;28.15;94582.78;4938649;29;20230;-82
2021/03/26 10:09:32;;;;;;;7.30;6.55;;;38.50;38.60;;;34.87;27.92;94516.00;4933458;29;20195;-82
2021/03/26 10:12:02;;;;;;;7.80;6.45;;;38.70;38.70;;;34.96;27.20;94562.41;4926144;29;20204;-82
2021/03/26 10:14:37;;;;;;;8.15;6.63;;;38.50;38.80;;;36.31;27.58;94521.41;4931866;29;20183;-82
2021/03/26 10:17:27;;;;;;;7.15;6.45;;;40.10;38.20;;;36.09;27.32;94580.84;4976935;28;20185;-82
2021/03/26 10:20:23;;;;;;;10.40;6.22;;;40.00;38.30;;;36.00;27.06;94541.84;4995531;28;20161;-82
2021/03/26 10:23:02;;;;;;;6.35;5.72;;;39.70;37.80;;;33.83;26.93;94489.34;5003102;28;20189;-81
2021/03/26 10:25:40;;;;;;;8.30;6.32;;;37.90;38.60;;;33.53;26.56;94635.53;5015070;28;20169;-82
2021/03/26 10:28:44;;;;;;;8.48;6.85;;;36.30;40.70;;;33.66;27.13;94632.41;4987661;28;20437;-83
2021/03/26 10:31:38;;;;;;;6.55;5.95;;;36.90;39.80;;;33.68;26.28;94500.78;4980158;28;20582;-83
2021/03/26 10:34:09;;;;;;;7.80;6.10;;;36.60;40.00;;;34.00;26.09;94597.78;4951158;28;20539;-83
2021/03/26 10:36:58;;;;;;;7.50;6.03;;;36.30;39.90;;;35.50;26.48;94561.63;4953076;28;20678;-84
2021/03/26 10:39:32;;;;;;;8.00;6.13;;;37.50;39.80;;;35.53;26.47;94452.44;4979092;28;20242;-86
2021/03/26 10:42:12;;;;;;;7.85;6.10;;;38.30;38.40;;;35.34;26.09;94422.69;4981287;28;20200;-80
2021/03/26 10:45:33;;;;;;;8.18;6.28;;;38.10;38.90;;;35.95;25.90;94572.69;5005751;28;20197;-83
2021/03/26 10:48:20;;;;;;;6.80;6.10;;;38.80;38.00;;;36.41;25.99;94501.16;4940206;28;20267;-89
2021/03/26 10:51:53;;;;;;;7.68;5.93;;;40.10;37.90;;;36.44;25.57;94530.69;4923171;29;20183;-84
2021/03/26 10:54:46;;;;;;;7.03;6.22;;;40.30;36.90;;;35.95;25.16;94410.59;4886373;29;20190;-83
2021/03/26 10:57:59;;;;;;;9.00;6.60;;;39.30;37.30;;;36.31;25.42;94587.69;4877266;29;20238;-83
2021/03/26 11:00:41;;;;;;;6.53;6.03;;;38.80;38.10;;;36.96;24.95;94582.97;4871164;29;20518;-83
2021/03/26 11:03:25;;;;;;;7.85;6.55;;;39.60;38.30;;;37.22;24.98;94532.41;4872022;29;20177;-85
2021/03/26 11:06:43;;;;;;;7.35;6.28;;;40.30;38.00;;;36.73;24.60;94569.84;4866252;29;20220;-84
2021/03/26 11:09:26;;;;;;;7.38;6.47;;;39.20;38.00;;;36.23;24.97;94353.47;4922252;29;20185;-85
2021/03/26 11:12:24;;;;;;;7.18;6.07;;;39.30;37.00;;;35.85;24.83;94510.88;4925669;28;20711;-85
2021/03/26 11:15:05;;;;;;;7.05;6.20;;;38.50;37.80;;;35.70;24.72;94396.31;4916502;29;20192;-84
2021/03/26 11:18:13;;;;;;;7.00;6.30;;;38.30;37.90;;;34.67;24.69;94523.22;4920574;29;20200;-83
2021/03/26 11:21:11;;;;;;;10.50;6.70;;;37.00;39.10;;;35.98;23.71;94502.84;4936010;29;20188;-83
2021/03/26 11:23:41;;;;;;;9.07;6.47;;;38.30;38.40;;;36.51;24.02;94375.91;4939516;28;20297;-83
2021/03/26 11:26:30;;;;;;;7.10;6.40;;;38.90;37.40;;;38.03;24.09;94574.56;4934644;28;20214;-82
2021/03/26 11:29:12;;;;;;;6.97;6.28;;;40.50;37.30;;;36.42;23.96;94512.97;4961935;28;20185;-83
2021/03/26 11:32:16;;;;;;;7.72;6.22;;;39.30;37.10;;;37.83;23.87;94554.34;5016737;28;20699;-85
2021/03/26 11:35:12;;;;;;;6.18;5.32;;;40.40;35.70;;;38.87;23.67;94466.75;4963977;28;20178;-84
2021/03/26 11:37:42;;;;;;;5.95;5.40;;;41.80;34.80;;;39.17;23.15;94404.59;4960250;29;20180;-84
2021/03/26 11:40:20;;;;;;;6.70;5.93;;;42.60;35.10;;;37.49;23.17;94399.56;4974875;28;20210;-85
2021/03/26 11:42:54;;;;;;;5.82;5.05;;;41.60;35.50;;;36.07;23.21;94411.25;4962973;28;20198;-85
2021/03/26 11:45:32;;;;;;;8.52;5.75;;;40.20;35.50;;;35.90;23.50;94459.94;4978349;28;20329;-85
2021/03/26 11:48:12;;;;;;;7.25;6.13;;;39.70;36.60;;;36.89;22.87;94500.91;4962408;28;20213;-84
2021/03/26 11:51:16;;;;;;;8.27;6.10;;;40.20;36.30;;;36.63;22.92;94463.00;4968968;28;20190;-87
2021/03/26 11:54:20;;;;;;;6.88;6.28;;;39.90;37.00;;;36.87;22.76;94480.38;4946466;28;20186;-85
2021/03/26 11:57:11;;;;;;;7.85;6.53;;;39.80;37.50;;;36.28;22.36;94394.41;4967606;28;20178;-84
2021/03/26 11:59:58;;;;;;;8.48;6.53;;;39.80;37.60;;;35.95;22.52;94503.66;4959045;28;20190;-84
2021/03/26 12:02:50;;;;;;;6.75;5.63;;;38.90;37.90;;;36.68;22.45;94517.00;4977459;28;20222;-82
2021/03/26 12:05:57;;;;;;;6.82;6.15;;;38.80;38.40;;;36.55;22.32;94439.41;4985261;28;20218;-84
2021/03/26 12:08:51;;;;;;;6.95;6.07;;;39.50;37.10;;;36.88;22.02;94452.34;4961971;28;20269;-83